sensor_id;sensor_type;location;lat;lon;timestamp;temperature;humidity
13992;DHT22;7070;53.586;9.692;2023-06-22T00:01:17;18.10;73.30
13992;DHT22;7070;53.586;9.692;2023-06-22T00:03:44;18.00;73.40
13992;DHT22;7070;53.586;9.692;2023-06-22T00:06:11;18.10;73.50
13992;DHT22;7070;53.586;9.692;2023-06-22T00:08:38;18.00;73.30
13992;DHT22;7070;53.586;9.692;2023-06-22T00:11:05;18.00;73.30
13992;DHT22;7070;53.586;9.692;2023-06-22T00:13:33;18.00;73.30
13992;DHT22;7070;53.586;9.692;2023-06-22T00:16:00;18.00;73.30
13992;DHT22;7070;53.586;9.692;2023-06-22T00:18:27;18.00;74.20
13992;DHT22;7070;53.586;9.692;2023-06-22T00:20:56;18.00;73.40
13992;DHT22;7070;53.586;9.692;2023-06-22T00:23:24;17.90;73.50
13992;DHT22;7070;53.586;9.692;2023-06-22T00:25:51;18.00;73.80
13992;DHT22;7070;53.586;9.692;2023-06-22T00:28:18;17.90;73.90
13992;DHT22;7070;53.586;9.692;2023-06-22T00:30:47;17.90;74.10
13992;DHT22;7070;53.586;9.692;2023-06-22T00:33:14;18.00;74.30
13992;DHT22;7070;53.586;9.692;2023-06-22T00:35:41;18.00;74.60
13992;DHT22;7070;53.586;9.692;2023-06-22T00:38:08;17.90;74.50
13992;DHT22;7070;53.586;9.692;2023-06-22T00:40:35;18.00;74.70
13992;DHT22;7070;53.586;9.692;2023-06-22T00:43:03;17.90;74.70
13992;DHT22;7070;53.586;9.692;2023-06-22T00:45:30;17.90;74.80
13992;DHT22;7070;53.586;9.692;2023-06-22T00:47:59;17.90;74.80
13992;DHT22;7070;53.586;9.692;2023-06-22T00:50:27;17.90;74.70
13992;DHT22;7070;53.586;9.692;2023-06-22T00:53:00;17.90;74.90
13992;DHT22;7070;53.586;9.692;2023-06-22T00:55:29;17.90;74.80
13992;DHT22;7070;53.586;9.692;2023-06-22T00:57:56;17.90;74.80
13992;DHT22;7070;53.586;9.692;2023-06-22T01:00:24;17.90;74.80
13992;DHT22;7070;53.586;9.692;2023-06-22T01:02:52;17.80;74.80
13992;DHT22;7070;53.586;9.692;2023-06-22T01:05:21;17.80;74.90
13992;DHT22;7070;53.586;9.692;2023-06-22T01:08:02;17.90;74.90
13992;DHT22;7070;53.586;9.692;2023-06-22T01:10:37;17.90;74.80
13992;DHT22;7070;53.586;9.692;2023-06-22T01:13:18;17.80;74.80
13992;DHT22;7070;53.586;9.692;2023-06-22T01:15:51;17.90;75.00
13992;DHT22;7070;53.586;9.692;2023-06-22T01:18:19;17.80;75.00
13992;DHT22;7070;53.586;9.692;2023-06-22T01:20:52;17.80;75.20
13992;DHT22;7070;53.586;9.692;2023-06-22T01:23:27;17.80;75.30
13992;DHT22;7070;53.586;9.692;2023-06-22T01:26:02;17.80;75.20
13992;DHT22;7070;53.586;9.692;2023-06-22T01:28:51;17.80;75.30
13992;DHT22;7070;53.586;9.692;2023-06-22T01:31:22;17.80;75.30
13992;DHT22;7070;53.586;9.692;2023-06-22T01:33:53;17.70;75.40
13992;DHT22;7070;53.586;9.692;2023-06-22T01:36:21;17.70;76.30
13992;DHT22;7070;53.586;9.692;2023-06-22T01:38:49;17.70;75.70
13992;DHT22;7070;53.586;9.692;2023-06-22T01:41:17;17.70;75.80
13992;DHT22;7070;53.586;9.692;2023-06-22T01:43:45;17.80;75.90
13992;DHT22;7070;53.586;9.692;2023-06-22T01:46:14;17.80;75.90
13992;DHT22;7070;53.586;9.692;2023-06-22T01:48:41;17.80;75.90
13992;DHT22;7070;53.586;9.692;2023-06-22T01:51:08;17.80;76.00
13992;DHT22;7070;53.586;9.692;2023-06-22T01:53:35;17.80;75.90
13992;DHT22;7070;53.586;9.692;2023-06-22T01:56:01;17.80;75.80
13992;DHT22;7070;53.586;9.692;2023-06-22T01:58:30;17.80;75.80
13992;DHT22;7070;53.586;9.692;2023-06-22T02:00:59;17.80;75.80
13992;DHT22;7070;53.586;9.692;2023-06-22T02:03:34;17.90;75.90
13992;DHT22;7070;53.586;9.692;2023-06-22T02:06:05;17.80;75.70
13992;DHT22;7070;53.586;9.692;2023-06-22T02:08:39;17.80;75.80
13992;DHT22;7070;53.586;9.692;2023-06-22T02:11:08;17.80;75.70
13992;DHT22;7070;53.586;9.692;2023-06-22T02:13:36;17.80;75.80
13992;DHT22;7070;53.586;9.692;2023-06-22T02:16:03;17.70;75.70
13992;DHT22;7070;53.586;9.692;2023-06-22T02:18:32;17.70;75.70
13992;DHT22;7070;53.586;9.692;2023-06-22T02:21:02;17.70;75.70
13992;DHT22;7070;53.586;9.692;2023-06-22T02:23:29;17.70;75.70
13992;DHT22;7070;53.586;9.692;2023-06-22T02:25:55;17.70;75.80
13992;DHT22;7070;53.586;9.692;2023-06-22T02:28:22;17.70;75.80
13992;DHT22;7070;53.586;9.692;2023-06-22T02:30:49;17.60;75.80
13992;DHT22;7070;53.586;9.692;2023-06-22T02:33:16;17.60;75.90
13992;DHT22;7070;53.586;9.692;2023-06-22T02:35:44;17.60;75.90
13992;DHT22;7070;53.586;9.692;2023-06-22T02:38:14;17.60;76.00
13992;DHT22;7070;53.586;9.692;2023-06-22T02:40:43;17.50;76.00
13992;DHT22;7070;53.586;9.692;2023-06-22T02:43:09;17.50;76.00
13992;DHT22;7070;53.586;9.692;2023-06-22T02:45:36;17.50;76.00
13992;DHT22;7070;53.586;9.692;2023-06-22T02:48:04;17.40;76.00
13992;DHT22;7070;53.586;9.692;2023-06-22T02:50:31;17.40;75.90
13992;DHT22;7070;53.586;9.692;2023-06-22T02:52:59;17.40;76.10
13992;DHT22;7070;53.586;9.692;2023-06-22T02:55:26;17.40;76.80
13992;DHT22;7070;53.586;9.692;2023-06-22T02:57:53;17.30;76.20
13992;DHT22;7070;53.586;9.692;2023-06-22T03:00:20;17.30;76.30
13992;DHT22;7070;53.586;9.692;2023-06-22T03:02:47;17.30;76.30
13992;DHT22;7070;53.586;9.692;2023-06-22T03:05:15;17.20;76.20
13992;DHT22;7070;53.586;9.692;2023-06-22T03:07:43;17.20;76.40
13992;DHT22;7070;53.586;9.692;2023-06-22T03:10:13;17.20;76.40
13992;DHT22;7070;53.586;9.692;2023-06-22T03:12:41;17.10;76.40
13992;DHT22;7070;53.586;9.692;2023-06-22T03:15:10;17.10;76.50
13992;DHT22;7070;53.586;9.692;2023-06-22T03:17:39;17.10;76.60
13992;DHT22;7070;53.586;9.692;2023-06-22T03:20:08;17.00;76.60
13992;DHT22;7070;53.586;9.692;2023-06-22T03:22:37;17.00;76.60
13992;DHT22;7070;53.586;9.692;2023-06-22T03:25:05;17.00;76.70
13992;DHT22;7070;53.586;9.692;2023-06-22T03:27:37;17.00;76.80
13992;DHT22;7070;53.586;9.692;2023-06-22T03:30:05;17.00;76.80
13992;DHT22;7070;53.586;9.692;2023-06-22T03:32:32;17.00;77.00
13992;DHT22;7070;53.586;9.692;2023-06-22T03:34:59;16.90;77.00
13992;DHT22;7070;53.586;9.692;2023-06-22T03:37:26;17.00;77.40
13992;DHT22;7070;53.586;9.692;2023-06-22T03:39:53;17.00;77.50
13992;DHT22;7070;53.586;9.692;2023-06-22T03:42:20;17.00;77.70
13992;DHT22;7070;53.586;9.692;2023-06-22T03:44:48;17.10;77.80
13992;DHT22;7070;53.586;9.692;2023-06-22T03:47:15;17.10;77.70
13992;DHT22;7070;53.586;9.692;2023-06-22T03:49:42;17.10;77.70
13992;DHT22;7070;53.586;9.692;2023-06-22T03:52:09;17.20;77.70
13992;DHT22;7070;53.586;9.692;2023-06-22T03:54:36;17.20;77.60
13992;DHT22;7070;53.586;9.692;2023-06-22T03:57:04;17.30;77.80
13992;DHT22;7070;53.586;9.692;2023-06-22T03:59:30;17.30;77.70
13992;DHT22;7070;53.586;9.692;2023-06-22T04:01:59;17.40;77.80
13992;DHT22;7070;53.586;9.692;2023-06-22T04:04:26;17.50;77.80
13992;DHT22;7070;53.586;9.692;2023-06-22T04:06:53;17.50;77.90
13992;DHT22;7070;53.586;9.692;2023-06-22T04:09:20;17.60;77.90
13992;DHT22;7070;53.586;9.692;2023-06-22T04:11:47;17.60;77.80
13992;DHT22;7070;53.586;9.692;2023-06-22T04:14:14;17.70;77.70
13992;DHT22;7070;53.586;9.692;2023-06-22T04:16:41;17.80;77.70
13992;DHT22;7070;53.586;9.692;2023-06-22T04:19:09;17.80;77.60
13992;DHT22;7070;53.586;9.692;2023-06-22T04:21:41;17.90;77.50
13992;DHT22;7070;53.586;9.692;2023-06-22T04:24:08;17.90;77.40
13992;DHT22;7070;53.586;9.692;2023-06-22T04:26:35;18.00;77.40
13992;DHT22;7070;53.586;9.692;2023-06-22T04:29:03;18.10;77.50
13992;DHT22;7070;53.586;9.692;2023-06-22T04:31:31;18.10;77.40
13992;DHT22;7070;53.586;9.692;2023-06-22T04:34:03;18.20;77.50
13992;DHT22;7070;53.586;9.692;2023-06-22T04:36:34;18.30;78.20
13992;DHT22;7070;53.586;9.692;2023-06-22T04:39:04;18.40;77.30
13992;DHT22;7070;53.586;9.692;2023-06-22T04:41:31;18.50;77.40
13992;DHT22;7070;53.586;9.692;2023-06-22T04:44:08;18.60;77.40
13992;DHT22;7070;53.586;9.692;2023-06-22T04:46:35;18.70;77.30
13992;DHT22;7070;53.586;9.692;2023-06-22T04:49:07;18.80;77.10
13992;DHT22;7070;53.586;9.692;2023-06-22T04:51:39;18.90;76.90
13992;DHT22;7070;53.586;9.692;2023-06-22T04:54:06;19.00;76.60
13992;DHT22;7070;53.586;9.692;2023-06-22T04:56:33;19.10;76.70
13992;DHT22;7070;53.586;9.692;2023-06-22T04:59:00;19.20;76.60
13992;DHT22;7070;53.586;9.692;2023-06-22T05:01:28;19.30;76.40
13992;DHT22;7070;53.586;9.692;2023-06-22T05:03:56;19.40;77.10
13992;DHT22;7070;53.586;9.692;2023-06-22T05:06:26;19.50;76.20
13992;DHT22;7070;53.586;9.692;2023-06-22T05:08:55;19.50;76.00
13992;DHT22;7070;53.586;9.692;2023-06-22T05:11:23;19.60;75.90
13992;DHT22;7070;53.586;9.692;2023-06-22T05:13:50;19.80;75.90
13992;DHT22;7070;53.586;9.692;2023-06-22T05:16:17;19.90;75.80
13992;DHT22;7070;53.586;9.692;2023-06-22T05:18:53;20.00;75.50
13992;DHT22;7070;53.586;9.692;2023-06-22T05:21:25;20.20;75.50
13992;DHT22;7070;53.586;9.692;2023-06-22T05:23:54;20.20;75.90
13992;DHT22;7070;53.586;9.692;2023-06-22T05:26:22;20.40;75.10
13992;DHT22;7070;53.586;9.692;2023-06-22T05:28:48;20.50;74.90
13992;DHT22;7070;53.586;9.692;2023-06-22T05:31:16;20.60;74.60
13992;DHT22;7070;53.586;9.692;2023-06-22T05:33:43;20.70;74.40
13992;DHT22;7070;53.586;9.692;2023-06-22T05:36:10;20.80;74.20
13992;DHT22;7070;53.586;9.692;2023-06-22T05:38:38;21.00;74.10
13992;DHT22;7070;53.586;9.692;2023-06-22T05:41:07;21.10;73.90
13992;DHT22;7070;53.586;9.692;2023-06-22T05:43:34;21.30;73.70
13992;DHT22;7070;53.586;9.692;2023-06-22T05:46:01;21.40;73.70
13992;DHT22;7070;53.586;9.692;2023-06-22T05:48:28;21.60;73.70
13992;DHT22;7070;53.586;9.692;2023-06-22T05:50:55;21.80;73.40
13992;DHT22;7070;53.586;9.692;2023-06-22T05:53:22;22.00;73.20
13992;DHT22;7070;53.586;9.692;2023-06-22T05:55:49;22.20;73.30
13992;DHT22;7070;53.586;9.692;2023-06-22T05:58:17;22.50;73.10
13992;DHT22;7070;53.586;9.692;2023-06-22T06:00:44;22.70;72.10
13992;DHT22;7070;53.586;9.692;2023-06-22T06:03:12;22.90;71.40
13992;DHT22;7070;53.586;9.692;2023-06-22T06:05:43;23.10;71.10
13992;DHT22;7070;53.586;9.692;2023-06-22T06:08:10;23.20;70.50
13992;DHT22;7070;53.586;9.692;2023-06-22T06:10:37;23.30;70.20
13992;DHT22;7070;53.586;9.692;2023-06-22T06:13:04;23.40;70.00
13992;DHT22;7070;53.586;9.692;2023-06-22T06:15:34;23.50;69.40
13992;DHT22;7070;53.586;9.692;2023-06-22T06:18:00;23.50;68.80
13992;DHT22;7070;53.586;9.692;2023-06-22T06:20:30;23.70;69.00
13992;DHT22;7070;53.586;9.692;2023-06-22T06:22:57;23.70;68.60
13992;DHT22;7070;53.586;9.692;2023-06-22T06:25:24;23.70;68.30
13992;DHT22;7070;53.586;9.692;2023-06-22T06:27:51;23.70;68.00
13992;DHT22;7070;53.586;9.692;2023-06-22T06:30:20;23.70;67.80
13992;DHT22;7070;53.586;9.692;2023-06-22T06:32:49;23.50;67.50
13992;DHT22;7070;53.586;9.692;2023-06-22T06:35:17;23.60;67.60
13992;DHT22;7070;53.586;9.692;2023-06-22T06:37:45;23.40;67.40
13992;DHT22;7070;53.586;9.692;2023-06-22T06:40:13;23.30;67.20
13992;DHT22;7070;53.586;9.692;2023-06-22T06:42:41;23.30;67.60
13992;DHT22;7070;53.586;9.692;2023-06-22T06:45:10;23.10;67.70
13992;DHT22;7070;53.586;9.692;2023-06-22T06:47:37;23.10;68.10
13992;DHT22;7070;53.586;9.692;2023-06-22T06:50:07;23.10;68.40
13992;DHT22;7070;53.586;9.692;2023-06-22T06:52:34;23.20;68.70
13992;DHT22;7070;53.586;9.692;2023-06-22T06:55:01;23.30;69.00
13992;DHT22;7070;53.586;9.692;2023-06-22T06:57:29;23.30;68.90
13992;DHT22;7070;53.586;9.692;2023-06-22T06:59:56;23.40;69.00
13992;DHT22;7070;53.586;9.692;2023-06-22T07:02:23;23.60;69.20
13992;DHT22;7070;53.586;9.692;2023-06-22T07:04:50;23.70;69.00
13992;DHT22;7070;53.586;9.692;2023-06-22T07:07:18;23.90;68.90
13992;DHT22;7070;53.586;9.692;2023-06-22T07:09:45;24.00;68.60
13992;DHT22;7070;53.586;9.692;2023-06-22T07:12:12;24.20;68.20
13992;DHT22;7070;53.586;9.692;2023-06-22T07:14:39;24.30;67.80
13992;DHT22;7070;53.586;9.692;2023-06-22T07:17:06;24.50;67.70
13992;DHT22;7070;53.586;9.692;2023-06-22T07:19:33;24.60;67.20
13992;DHT22;7070;53.586;9.692;2023-06-22T07:22:00;24.70;66.70
13992;DHT22;7070;53.586;9.692;2023-06-22T07:24:28;24.80;66.50
13992;DHT22;7070;53.586;9.692;2023-06-22T07:26:55;24.90;66.30
13992;DHT22;7070;53.586;9.692;2023-06-22T07:29:23;25.00;66.20
13992;DHT22;7070;53.586;9.692;2023-06-22T07:31:50;25.10;65.70
13992;DHT22;7070;53.586;9.692;2023-06-22T07:34:18;25.20;65.70
13992;DHT22;7070;53.586;9.692;2023-06-22T07:36:45;25.30;65.80
13992;DHT22;7070;53.586;9.692;2023-06-22T07:39:12;25.50;65.60
13992;DHT22;7070;53.586;9.692;2023-06-22T07:41:41;25.60;65.40
13992;DHT22;7070;53.586;9.692;2023-06-22T07:44:08;25.80;64.90
13992;DHT22;7070;53.586;9.692;2023-06-22T07:46:35;25.90;64.30
13992;DHT22;7070;53.586;9.692;2023-06-22T07:49:02;25.90;63.90
13992;DHT22;7070;53.586;9.692;2023-06-22T07:51:29;26.00;64.20
13992;DHT22;7070;53.586;9.692;2023-06-22T07:53:56;26.10;63.50
13992;DHT22;7070;53.586;9.692;2023-06-22T07:56:22;26.20;63.30
13992;DHT22;7070;53.586;9.692;2023-06-22T07:58:51;26.30;63.10
13992;DHT22;7070;53.586;9.692;2023-06-22T08:01:18;26.40;63.00
13992;DHT22;7070;53.586;9.692;2023-06-22T08:03:47;26.50;62.80
13992;DHT22;7070;53.586;9.692;2023-06-22T08:06:14;26.50;62.80
13992;DHT22;7070;53.586;9.692;2023-06-22T08:08:41;26.60;62.50
13992;DHT22;7070;53.586;9.692;2023-06-22T08:11:09;26.70;62.40
13992;DHT22;7070;53.586;9.692;2023-06-22T08:13:35;26.70;62.10
13992;DHT22;7070;53.586;9.692;2023-06-22T08:16:04;26.80;62.20
13992;DHT22;7070;53.586;9.692;2023-06-22T08:18:32;26.90;62.50
13992;DHT22;7070;53.586;9.692;2023-06-22T08:20:59;27.00;62.60
13992;DHT22;7070;53.586;9.692;2023-06-22T08:23:26;27.10;62.30
13992;DHT22;7070;53.586;9.692;2023-06-22T08:25:53;27.20;61.80
13992;DHT22;7070;53.586;9.692;2023-06-22T08:28:20;27.30;61.50
13992;DHT22;7070;53.586;9.692;2023-06-22T08:30:47;27.30;61.30
13992;DHT22;7070;53.586;9.692;2023-06-22T08:33:15;27.30;60.40
13992;DHT22;7070;53.586;9.692;2023-06-22T08:35:43;27.30;60.20
13992;DHT22;7070;53.586;9.692;2023-06-22T08:38:10;27.20;60.00
13992;DHT22;7070;53.586;9.692;2023-06-22T08:40:41;27.20;60.00
13992;DHT22;7070;53.586;9.692;2023-06-22T08:43:07;27.00;59.70
13992;DHT22;7070;53.586;9.692;2023-06-22T08:45:34;27.00;59.70
13992;DHT22;7070;53.586;9.692;2023-06-22T08:48:01;26.90;60.00
13992;DHT22;7070;53.586;9.692;2023-06-22T08:50:29;26.80;60.00
13992;DHT22;7070;53.586;9.692;2023-06-22T08:52:56;26.80;60.30
13992;DHT22;7070;53.586;9.692;2023-06-22T08:55:23;26.80;60.20
13992;DHT22;7070;53.586;9.692;2023-06-22T08:57:50;26.70;60.10
13992;DHT22;7070;53.586;9.692;2023-06-22T09:00:18;26.60;60.10
13992;DHT22;7070;53.586;9.692;2023-06-22T09:02:46;26.60;60.10
13992;DHT22;7070;53.586;9.692;2023-06-22T09:05:14;26.50;60.10
13992;DHT22;7070;53.586;9.692;2023-06-22T09:07:42;26.50;60.40
13992;DHT22;7070;53.586;9.692;2023-06-22T09:10:10;26.40;60.80
13992;DHT22;7070;53.586;9.692;2023-06-22T09:12:37;26.40;60.90
13992;DHT22;7070;53.586;9.692;2023-06-22T09:15:04;26.40;61.00
13992;DHT22;7070;53.586;9.692;2023-06-22T09:17:33;26.40;60.90
13992;DHT22;7070;53.586;9.692;2023-06-22T09:20:00;26.40;61.00
13992;DHT22;7070;53.586;9.692;2023-06-22T09:22:31;26.40;60.70
13992;DHT22;7070;53.586;9.692;2023-06-22T09:24:59;26.50;61.00
13992;DHT22;7070;53.586;9.692;2023-06-22T09:27:26;26.50;60.80
13992;DHT22;7070;53.586;9.692;2023-06-22T09:29:53;26.50;60.60
13992;DHT22;7070;53.586;9.692;2023-06-22T09:32:20;26.60;60.80
13992;DHT22;7070;53.586;9.692;2023-06-22T09:34:47;26.60;60.80
13992;DHT22;7070;53.586;9.692;2023-06-22T09:37:14;26.60;60.70
13992;DHT22;7070;53.586;9.692;2023-06-22T09:39:41;26.70;60.90
13992;DHT22;7070;53.586;9.692;2023-06-22T09:42:09;26.70;60.50
13992;DHT22;7070;53.586;9.692;2023-06-22T09:44:37;26.80;60.40
13992;DHT22;7070;53.586;9.692;2023-06-22T09:47:04;26.90;60.30
13992;DHT22;7070;53.586;9.692;2023-06-22T09:49:31;26.90;60.20
13992;DHT22;7070;53.586;9.692;2023-06-22T09:51:58;26.90;60.10
13992;DHT22;7070;53.586;9.692;2023-06-22T09:54:25;27.00;59.90
13992;DHT22;7070;53.586;9.692;2023-06-22T09:56:52;26.90;59.90
13992;DHT22;7070;53.586;9.692;2023-06-22T09:59:20;27.00;60.10
13992;DHT22;7070;53.586;9.692;2023-06-22T10:01:47;27.00;59.90
13992;DHT22;7070;53.586;9.692;2023-06-22T10:04:14;27.00;59.80
13992;DHT22;7070;53.586;9.692;2023-06-22T10:06:40;27.00;59.90
13992;DHT22;7070;53.586;9.692;2023-06-22T10:09:07;27.10;59.90
13992;DHT22;7070;53.586;9.692;2023-06-22T10:11:34;27.10;60.10
13992;DHT22;7070;53.586;9.692;2023-06-22T10:14:02;27.10;59.90
13992;DHT22;7070;53.586;9.692;2023-06-22T10:16:35;27.20;60.00
13992;DHT22;7070;53.586;9.692;2023-06-22T10:19:02;27.30;60.30
13992;DHT22;7070;53.586;9.692;2023-06-22T10:21:29;27.30;59.90
13992;DHT22;7070;53.586;9.692;2023-06-22T10:23:57;27.30;60.00
13992;DHT22;7070;53.586;9.692;2023-06-22T10:26:24;27.40;60.00
13992;DHT22;7070;53.586;9.692;2023-06-22T10:28:54;27.40;59.70
13992;DHT22;7070;53.586;9.692;2023-06-22T10:31:21;27.40;60.00
13992;DHT22;7070;53.586;9.692;2023-06-22T10:33:49;27.40;60.00
13992;DHT22;7070;53.586;9.692;2023-06-22T10:36:16;27.40;60.50
13992;DHT22;7070;53.586;9.692;2023-06-22T10:38:43;27.40;59.60
13992;DHT22;7070;53.586;9.692;2023-06-22T10:41:09;27.50;60.00
13992;DHT22;7070;53.586;9.692;2023-06-22T10:43:36;27.50;60.30
13992;DHT22;7070;53.586;9.692;2023-06-22T10:46:03;27.60;60.60
13992;DHT22;7070;53.586;9.692;2023-06-22T10:48:30;27.70;60.20
13992;DHT22;7070;53.586;9.692;2023-06-22T10:50:58;27.90;60.40
13992;DHT22;7070;53.586;9.692;2023-06-22T10:53:25;28.10;60.40
13992;DHT22;7070;53.586;9.692;2023-06-22T10:55:52;28.30;59.80
13992;DHT22;7070;53.586;9.692;2023-06-22T10:58:20;28.50;58.90
13992;DHT22;7070;53.586;9.692;2023-06-22T11:00:47;28.80;58.70
13992;DHT22;7070;53.586;9.692;2023-06-22T11:03:13;28.90;58.50
13992;DHT22;7070;53.586;9.692;2023-06-22T11:05:40;29.00;57.90
13992;DHT22;7070;53.586;9.692;2023-06-22T11:08:09;29.00;57.30
13992;DHT22;7070;53.586;9.692;2023-06-22T11:10:36;29.00;57.20
13992;DHT22;7070;53.586;9.692;2023-06-22T11:13:02;29.00;57.20
13992;DHT22;7070;53.586;9.692;2023-06-22T11:15:29;28.90;57.50
13992;DHT22;7070;53.586;9.692;2023-06-22T11:17:56;28.90;57.70
13992;DHT22;7070;53.586;9.692;2023-06-22T11:20:23;28.90;57.00
13992;DHT22;7070;53.586;9.692;2023-06-22T11:22:50;28.80;57.10
13992;DHT22;7070;53.586;9.692;2023-06-22T11:25:18;28.70;57.10
13992;DHT22;7070;53.586;9.692;2023-06-22T11:27:45;28.70;57.30
13992;DHT22;7070;53.586;9.692;2023-06-22T11:30:12;28.60;57.30
13992;DHT22;7070;53.586;9.692;2023-06-22T11:32:39;28.60;57.50
13992;DHT22;7070;53.586;9.692;2023-06-22T11:35:06;28.50;57.60
13992;DHT22;7070;53.586;9.692;2023-06-22T11:37:33;28.50;57.70
13992;DHT22;7070;53.586;9.692;2023-06-22T11:40:00;28.50;57.90
13992;DHT22;7070;53.586;9.692;2023-06-22T11:42:29;28.60;57.90
13992;DHT22;7070;53.586;9.692;2023-06-22T11:44:56;28.60;58.50
13992;DHT22;7070;53.586;9.692;2023-06-22T11:47:23;28.70;58.80
13992;DHT22;7070;53.586;9.692;2023-06-22T11:49:50;28.90;58.80
13992;DHT22;7070;53.586;9.692;2023-06-22T11:52:17;29.10;58.70
13992;DHT22;7070;53.586;9.692;2023-06-22T11:54:44;29.20;58.20
13992;DHT22;7070;53.586;9.692;2023-06-22T11:57:12;29.40;58.00
13992;DHT22;7070;53.586;9.692;2023-06-22T11:59:40;29.60;57.90
13992;DHT22;7070;53.586;9.692;2023-06-22T12:02:07;29.60;57.60
13992;DHT22;7070;53.586;9.692;2023-06-22T12:04:35;29.70;57.50
13992;DHT22;7070;53.586;9.692;2023-06-22T12:07:02;29.80;57.60
13992;DHT22;7070;53.586;9.692;2023-06-22T12:09:29;29.90;57.60
13992;DHT22;7070;53.586;9.692;2023-06-22T12:11:55;30.00;57.50
13992;DHT22;7070;53.586;9.692;2023-06-22T12:14:22;30.10;57.40
13992;DHT22;7070;53.586;9.692;2023-06-22T12:16:50;30.20;57.60
13992;DHT22;7070;53.586;9.692;2023-06-22T12:19:17;30.40;57.90
13992;DHT22;7070;53.586;9.692;2023-06-22T12:21:44;30.50;57.40
13992;DHT22;7070;53.586;9.692;2023-06-22T12:24:12;30.60;57.10
13992;DHT22;7070;53.586;9.692;2023-06-22T12:26:38;30.70;56.80
13992;DHT22;7070;53.586;9.692;2023-06-22T12:29:05;30.90;56.60
13992;DHT22;7070;53.586;9.692;2023-06-22T12:31:32;31.10;56.50
13992;DHT22;7070;53.586;9.692;2023-06-22T12:34:00;31.10;56.20
13992;DHT22;7070;53.586;9.692;2023-06-22T12:36:27;31.20;56.00
13992;DHT22;7070;53.586;9.692;2023-06-22T12:38:54;31.30;55.90
13992;DHT22;7070;53.586;9.692;2023-06-22T12:41:21;31.30;56.10
13992;DHT22;7070;53.586;9.692;2023-06-22T12:43:47;31.40;55.90
13992;DHT22;7070;53.586;9.692;2023-06-22T12:46:14;31.50;55.30
13992;DHT22;7070;53.586;9.692;2023-06-22T12:48:41;31.50;55.20
13992;DHT22;7070;53.586;9.692;2023-06-22T12:51:09;31.50;55.30
13992;DHT22;7070;53.586;9.692;2023-06-22T12:53:36;31.50;55.50
13992;DHT22;7070;53.586;9.692;2023-06-22T12:56:03;31.60;55.50
13992;DHT22;7070;53.586;9.692;2023-06-22T12:58:30;31.60;55.40
13992;DHT22;7070;53.586;9.692;2023-06-22T13:00:57;31.70;55.70
13992;DHT22;7070;53.586;9.692;2023-06-22T13:03:24;31.70;55.60
13992;DHT22;7070;53.586;9.692;2023-06-22T13:05:53;31.70;55.10
13992;DHT22;7070;53.586;9.692;2023-06-22T13:08:21;31.80;55.20
13992;DHT22;7070;53.586;9.692;2023-06-22T13:10:48;31.80;54.60
13992;DHT22;7070;53.586;9.692;2023-06-22T13:13:15;31.90;54.20
13992;DHT22;7070;53.586;9.692;2023-06-22T13:15:42;31.90;54.60
13992;DHT22;7070;53.586;9.692;2023-06-22T13:18:08;31.90;54.60
13992;DHT22;7070;53.586;9.692;2023-06-22T13:20:35;31.80;54.60
13992;DHT22;7070;53.586;9.692;2023-06-22T13:23:02;31.90;54.90
13992;DHT22;7070;53.586;9.692;2023-06-22T13:25:30;31.90;54.80
13992;DHT22;7070;53.586;9.692;2023-06-22T13:27:57;31.90;54.70
13992;DHT22;7070;53.586;9.692;2023-06-22T13:30:24;31.90;55.00
13992;DHT22;7070;53.586;9.692;2023-06-22T13:32:51;32.00;54.30
13992;DHT22;7070;53.586;9.692;2023-06-22T13:35:18;31.90;54.40
13992;DHT22;7070;53.586;9.692;2023-06-22T13:37:44;31.90;54.30
13992;DHT22;7070;53.586;9.692;2023-06-22T13:40:11;31.90;54.40
13992;DHT22;7070;53.586;9.692;2023-06-22T13:42:39;31.90;54.50
13992;DHT22;7070;53.586;9.692;2023-06-22T13:45:07;31.90;54.70
13992;DHT22;7070;53.586;9.692;2023-06-22T13:47:34;31.90;54.70
13992;DHT22;7070;53.586;9.692;2023-06-22T13:50:01;31.90;54.60
13992;DHT22;7070;53.586;9.692;2023-06-22T13:52:28;32.00;54.80
13992;DHT22;7070;53.586;9.692;2023-06-22T13:54:55;31.90;54.60
13992;DHT22;7070;53.586;9.692;2023-06-22T13:57:22;31.90;54.60
13992;DHT22;7070;53.586;9.692;2023-06-22T13:59:50;31.80;54.40
13992;DHT22;7070;53.586;9.692;2023-06-22T14:02:17;31.70;54.40
13992;DHT22;7070;53.586;9.692;2023-06-22T14:04:44;31.70;54.50
13992;DHT22;7070;53.586;9.692;2023-06-22T14:07:10;31.70;54.60
13992;DHT22;7070;53.586;9.692;2023-06-22T14:09:37;31.60;54.50
13992;DHT22;7070;53.586;9.692;2023-06-22T14:12:05;31.50;54.60
13992;DHT22;7070;53.586;9.692;2023-06-22T14:14:32;31.50;54.90
13992;DHT22;7070;53.586;9.692;2023-06-22T14:17:00;31.50;55.10
13992;DHT22;7070;53.586;9.692;2023-06-22T14:19:27;31.50;55.50
13992;DHT22;7070;53.586;9.692;2023-06-22T14:21:54;31.50;55.20
13992;DHT22;7070;53.586;9.692;2023-06-22T14:24:22;31.60;55.10
13992;DHT22;7070;53.586;9.692;2023-06-22T14:26:49;31.70;55.30
13992;DHT22;7070;53.586;9.692;2023-06-22T14:29:16;31.70;55.20
13992;DHT22;7070;53.586;9.692;2023-06-22T14:31:44;31.80;55.30
13992;DHT22;7070;53.586;9.692;2023-06-22T14:34:13;31.90;55.70
13992;DHT22;7070;53.586;9.692;2023-06-22T14:36:40;32.00;55.40
13992;DHT22;7070;53.586;9.692;2023-06-22T14:39:08;32.00;55.00
13992;DHT22;7070;53.586;9.692;2023-06-22T14:41:35;32.10;54.80
13992;DHT22;7070;53.586;9.692;2023-06-22T14:44:02;32.10;54.60
13992;DHT22;7070;53.586;9.692;2023-06-22T14:46:29;32.10;54.40
13992;DHT22;7070;53.586;9.692;2023-06-22T14:48:56;32.10;54.20
13992;DHT22;7070;53.586;9.692;2023-06-22T14:51:24;32.10;54.10
13992;DHT22;7070;53.586;9.692;2023-06-22T14:53:51;32.00;54.20
13992;DHT22;7070;53.586;9.692;2023-06-22T14:56:18;32.00;54.00
13992;DHT22;7070;53.586;9.692;2023-06-22T14:58:44;31.80;54.00
13992;DHT22;7070;53.586;9.692;2023-06-22T15:01:11;31.70;53.90
13992;DHT22;7070;53.586;9.692;2023-06-22T15:03:39;31.60;54.10
13992;DHT22;7070;53.586;9.692;2023-06-22T15:06:05;31.50;54.30
13992;DHT22;7070;53.586;9.692;2023-06-22T15:08:34;31.30;54.50
13992;DHT22;7070;53.586;9.692;2023-06-22T15:11:01;31.20;54.90
13992;DHT22;7070;53.586;9.692;2023-06-22T15:13:29;30.90;55.30
13992;DHT22;7070;53.586;9.692;2023-06-22T15:15:58;30.70;55.90
13992;DHT22;7070;53.586;9.692;2023-06-22T15:18:25;30.40;56.10
13992;DHT22;7070;53.586;9.692;2023-06-22T15:20:52;30.10;57.00
13992;DHT22;7070;53.586;9.692;2023-06-22T15:23:19;29.80;57.70
13992;DHT22;7070;53.586;9.692;2023-06-22T15:25:47;29.60;58.10
13992;DHT22;7070;53.586;9.692;2023-06-22T15:28:14;29.40;58.60
13992;DHT22;7070;53.586;9.692;2023-06-22T15:30:41;29.30;59.00
13992;DHT22;7070;53.586;9.692;2023-06-22T15:33:08;29.10;59.20
13992;DHT22;7070;53.586;9.692;2023-06-22T15:35:35;29.00;59.30
13992;DHT22;7070;53.586;9.692;2023-06-22T15:38:02;28.80;59.30
13992;DHT22;7070;53.586;9.692;2023-06-22T15:40:29;28.70;59.40
13992;DHT22;7070;53.586;9.692;2023-06-22T15:42:57;28.60;59.70
13992;DHT22;7070;53.586;9.692;2023-06-22T15:45:24;28.60;59.80
13992;DHT22;7070;53.586;9.692;2023-06-22T15:47:51;28.50;59.80